Airfield :
LOGIN :

Register | Disclaimer

   EN    FR    IT 

 










Legend :    VFR   Marginal VFR   IFR   Intensive IFR   Very Intensive IFR
Visi :
Ceiling :
>= 8 km
>= 3000ft
5 to 8 km
1000 to 3000 ft
1500m to 5 km
500 to 1000 ft
800 to 1500m
200 to 500 ft
< 800m
< 200 ft
Symbols :   Thunderstorms  Fog  Heavy snow  Heavy precipitations  Wind > 20 kt
SIGMETs :     Misc.  Thunderstorms  Icing  Turbulence  Mountain Waves  Volcanic Ashes






- Airport Elevation : 47 ft
- IATA code : BDS


LIBR - Casale Arpt. Brindisi

CURRENT METAR :
  • 090420Z 31013KT CAVOK 11/10 Q1020

EXPIRED METARs :
  • 090350Z 31013KT CAVOK 11/10 Q1021
  • 090320Z 31013KT CAVOK 11/10 Q1021
  • 090250Z 30012KT CAVOK 11/09 Q1021
  • 090220Z 31013KT CAVOK 11/10 Q1021
  • 090150Z 31012KT CAVOK 12/09 Q1021

TAF TAF LIBR
Valid from the 09 at 00:00 until the 10 at 00:00 UTC


082300Z 0900/0924 VRB05KT CAVOK
BECMG 0908/0910 34012KT
BECMG 0918/0920 VRB05KT



MET'MAP, your aeronautical weather chart ! - Copyright ORBIFLY December 2007 - Disclaimer

ORBIFLY MET'MAP TEAM :

Programming & Development : Alexandra Zaïnal
Concept & original design : Baudouin d'Aumeries
Assistance for programming : Marc-Olivier Méhu
Technical & hardware support : Manuel Goepfert

Contact : metmap@orbifly.com




SOURCES & CREDITS :

   NOAA